sensor_id;sensor_type;location;lat;lon;timestamp;temperature;humidity
13978;DHT22;7063;49.260;8.636;2024-01-15T00:02:15;-1.40;99.90
13978;DHT22;7063;49.260;8.636;2024-01-15T00:04:41;-1.40;99.90
13978;DHT22;7063;49.260;8.636;2024-01-15T00:07:07;-1.30;99.90
13978;DHT22;7063;49.260;8.636;2024-01-15T00:09:33;-1.30;99.90
13978;DHT22;7063;49.260;8.636;2024-01-15T00:11:59;-1.30;99.90
13978;DHT22;7063;49.260;8.636;2024-01-15T00:14:25;-1.30;99.90
13978;DHT22;7063;49.260;8.636;2024-01-15T00:16:50;-1.30;99.90
13978;DHT22;7063;49.260;8.636;2024-01-15T00:19:17;-1.30;99.90
13978;DHT22;7063;49.260;8.636;2024-01-15T00:21:43;-1.30;99.90
13978;DHT22;7063;49.260;8.636;2024-01-15T00:24:09;-1.30;99.90
13978;DHT22;7063;49.260;8.636;2024-01-15T00:26:35;-1.30;99.90
13978;DHT22;7063;49.260;8.636;2024-01-15T00:29:00;-1.20;99.90
13978;DHT22;7063;49.260;8.636;2024-01-15T00:31:26;-1.20;99.90
13978;DHT22;7063;49.260;8.636;2024-01-15T00:33:51;-1.20;99.90
13978;DHT22;7063;49.260;8.636;2024-01-15T00:36:17;-1.20;99.90
13978;DHT22;7063;49.260;8.636;2024-01-15T00:38:44;-1.20;99.90
13978;DHT22;7063;49.260;8.636;2024-01-15T00:41:09;-1.20;99.90
13978;DHT22;7063;49.260;8.636;2024-01-15T00:43:35;-1.20;99.90
13978;DHT22;7063;49.260;8.636;2024-01-15T00:46:05;-1.20;99.90
13978;DHT22;7063;49.260;8.636;2024-01-15T00:48:30;-1.20;99.90
13978;DHT22;7063;49.260;8.636;2024-01-15T00:50:56;-1.20;99.90
13978;DHT22;7063;49.260;8.636;2024-01-15T00:53:22;-1.20;99.90
13978;DHT22;7063;49.260;8.636;2024-01-15T00:55:48;-1.20;99.90
13978;DHT22;7063;49.260;8.636;2024-01-15T00:58:14;-1.20;99.90
13978;DHT22;7063;49.260;8.636;2024-01-15T01:00:39;-1.20;99.90
13978;DHT22;7063;49.260;8.636;2024-01-15T01:03:06;-1.20;99.90
13978;DHT22;7063;49.260;8.636;2024-01-15T01:05:31;-1.20;99.90
13978;DHT22;7063;49.260;8.636;2024-01-15T01:07:57;-1.20;99.90
13978;DHT22;7063;49.260;8.636;2024-01-15T01:10:22;-1.20;99.90
13978;DHT22;7063;49.260;8.636;2024-01-15T01:12:48;-1.20;99.90
13978;DHT22;7063;49.260;8.636;2024-01-15T01:15:13;-1.20;99.90
13978;DHT22;7063;49.260;8.636;2024-01-15T01:17:39;-1.20;99.90
13978;DHT22;7063;49.260;8.636;2024-01-15T01:20:05;-1.20;99.90
13978;DHT22;7063;49.260;8.636;2024-01-15T01:22:33;-1.20;99.90
13978;DHT22;7063;49.260;8.636;2024-01-15T01:24:59;-1.20;99.90
13978;DHT22;7063;49.260;8.636;2024-01-15T01:27:24;-1.10;99.90
13978;DHT22;7063;49.260;8.636;2024-01-15T01:29:52;-1.10;99.90
13978;DHT22;7063;49.260;8.636;2024-01-15T01:32:18;-1.10;99.90
13978;DHT22;7063;49.260;8.636;2024-01-15T01:34:44;-1.10;99.90
13978;DHT22;7063;49.260;8.636;2024-01-15T01:37:10;-1.10;99.90
13978;DHT22;7063;49.260;8.636;2024-01-15T01:39:39;-1.10;99.90
13978;DHT22;7063;49.260;8.636;2024-01-15T01:42:05;-1.10;99.90
13978;DHT22;7063;49.260;8.636;2024-01-15T01:44:31;-1.10;99.90
13978;DHT22;7063;49.260;8.636;2024-01-15T01:46:58;-1.10;99.90
13978;DHT22;7063;49.260;8.636;2024-01-15T01:49:24;-1.10;99.90
13978;DHT22;7063;49.260;8.636;2024-01-15T01:51:50;-1.10;99.90
13978;DHT22;7063;49.260;8.636;2024-01-15T01:54:17;-1.10;99.90
13978;DHT22;7063;49.260;8.636;2024-01-15T01:56:43;-1.10;99.90
13978;DHT22;7063;49.260;8.636;2024-01-15T01:59:11;-1.10;99.90
13978;DHT22;7063;49.260;8.636;2024-01-15T02:01:37;-1.10;99.90
13978;DHT22;7063;49.260;8.636;2024-01-15T02:04:03;-1.10;99.90
13978;DHT22;7063;49.260;8.636;2024-01-15T02:06:29;-1.20;99.90
13978;DHT22;7063;49.260;8.636;2024-01-15T02:08:55;-1.20;99.90
13978;DHT22;7063;49.260;8.636;2024-01-15T02:11:21;-1.20;99.90
13978;DHT22;7063;49.260;8.636;2024-01-15T02:13:47;-1.20;99.90
13978;DHT22;7063;49.260;8.636;2024-01-15T02:16:12;-1.20;99.90
13978;DHT22;7063;49.260;8.636;2024-01-15T02:18:42;-1.20;99.90
13978;DHT22;7063;49.260;8.636;2024-01-15T02:21:08;-1.10;99.90
13978;DHT22;7063;49.260;8.636;2024-01-15T02:23:34;-1.20;99.90
13978;DHT22;7063;49.260;8.636;2024-01-15T02:25:59;-1.20;99.90
13978;DHT22;7063;49.260;8.636;2024-01-15T02:28:25;-1.20;99.90
13978;DHT22;7063;49.260;8.636;2024-01-15T02:30:51;-1.20;99.90
13978;DHT22;7063;49.260;8.636;2024-01-15T02:33:16;-1.20;99.90
13978;DHT22;7063;49.260;8.636;2024-01-15T02:35:42;-1.20;99.90
13978;DHT22;7063;49.260;8.636;2024-01-15T02:38:08;-1.20;99.90
13978;DHT22;7063;49.260;8.636;2024-01-15T02:40:34;-1.20;99.90
13978;DHT22;7063;49.260;8.636;2024-01-15T02:42:59;-1.20;99.90
13978;DHT22;7063;49.260;8.636;2024-01-15T02:45:25;-1.20;99.90
13978;DHT22;7063;49.260;8.636;2024-01-15T02:47:51;-1.20;99.90
13978;DHT22;7063;49.260;8.636;2024-01-15T02:50:16;-1.20;99.90
13978;DHT22;7063;49.260;8.636;2024-01-15T02:52:42;-1.20;99.90
13978;DHT22;7063;49.260;8.636;2024-01-15T02:55:08;-1.20;99.90
13978;DHT22;7063;49.260;8.636;2024-01-15T02:57:34;-1.20;99.90
13978;DHT22;7063;49.260;8.636;2024-01-15T03:00:00;-1.20;99.90
13978;DHT22;7063;49.260;8.636;2024-01-15T03:02:25;-1.20;99.90
13978;DHT22;7063;49.260;8.636;2024-01-15T03:04:51;-1.20;99.90
13978;DHT22;7063;49.260;8.636;2024-01-15T03:07:17;-1.20;99.90
13978;DHT22;7063;49.260;8.636;2024-01-15T03:09:42;-1.20;99.90
13978;DHT22;7063;49.260;8.636;2024-01-15T03:12:08;-1.20;99.90
13978;DHT22;7063;49.260;8.636;2024-01-15T03:14:33;-1.20;99.90
13978;DHT22;7063;49.260;8.636;2024-01-15T03:17:00;-1.20;99.90
13978;DHT22;7063;49.260;8.636;2024-01-15T03:19:26;-1.20;99.90
13978;DHT22;7063;49.260;8.636;2024-01-15T03:21:51;-1.20;99.90
13978;DHT22;7063;49.260;8.636;2024-01-15T03:24:17;-1.20;99.90
13978;DHT22;7063;49.260;8.636;2024-01-15T03:26:42;-1.20;99.90
13978;DHT22;7063;49.260;8.636;2024-01-15T03:29:08;-1.20;99.90
13978;DHT22;7063;49.260;8.636;2024-01-15T03:31:33;-1.20;99.90
13978;DHT22;7063;49.260;8.636;2024-01-15T03:33:59;-1.20;99.90
13978;DHT22;7063;49.260;8.636;2024-01-15T03:36:25;-1.20;99.90
13978;DHT22;7063;49.260;8.636;2024-01-15T03:38:50;-1.20;99.90
13978;DHT22;7063;49.260;8.636;2024-01-15T03:41:16;-1.20;99.90
13978;DHT22;7063;49.260;8.636;2024-01-15T03:43:41;-1.20;99.90
13978;DHT22;7063;49.260;8.636;2024-01-15T03:46:07;-1.20;99.90
13978;DHT22;7063;49.260;8.636;2024-01-15T03:48:32;-1.20;99.90
13978;DHT22;7063;49.260;8.636;2024-01-15T03:50:58;-1.20;99.90
13978;DHT22;7063;49.260;8.636;2024-01-15T03:53:24;-1.10;99.90
13978;DHT22;7063;49.260;8.636;2024-01-15T03:55:49;-1.10;99.90
13978;DHT22;7063;49.260;8.636;2024-01-15T03:58:15;-1.10;99.90
13978;DHT22;7063;49.260;8.636;2024-01-15T04:00:42;-1.10;99.90
13978;DHT22;7063;49.260;8.636;2024-01-15T04:03:08;-1.10;99.90
13978;DHT22;7063;49.260;8.636;2024-01-15T04:05:33;-1.10;99.90
13978;DHT22;7063;49.260;8.636;2024-01-15T04:07:59;-1.10;99.90
13978;DHT22;7063;49.260;8.636;2024-01-15T04:10:24;-1.10;99.90
13978;DHT22;7063;49.260;8.636;2024-01-15T04:12:50;-1.10;99.90
13978;DHT22;7063;49.260;8.636;2024-01-15T04:15:16;-1.10;99.90
13978;DHT22;7063;49.260;8.636;2024-01-15T04:17:41;-1.10;99.90
13978;DHT22;7063;49.260;8.636;2024-01-15T04:20:07;-1.10;99.90
13978;DHT22;7063;49.260;8.636;2024-01-15T04:22:34;-1.10;99.90
13978;DHT22;7063;49.260;8.636;2024-01-15T04:25:00;-1.10;99.90
13978;DHT22;7063;49.260;8.636;2024-01-15T04:27:25;-1.10;99.90
13978;DHT22;7063;49.260;8.636;2024-01-15T04:29:51;-1.10;99.90
13978;DHT22;7063;49.260;8.636;2024-01-15T04:32:17;-1.10;99.90
13978;DHT22;7063;49.260;8.636;2024-01-15T04:34:42;-1.10;99.90
13978;DHT22;7063;49.260;8.636;2024-01-15T04:37:08;-1.00;99.90
13978;DHT22;7063;49.260;8.636;2024-01-15T04:39:33;-1.00;99.90
13978;DHT22;7063;49.260;8.636;2024-01-15T04:41:59;-1.00;99.90
13978;DHT22;7063;49.260;8.636;2024-01-15T04:44:24;-1.00;99.90
13978;DHT22;7063;49.260;8.636;2024-01-15T04:46:50;-1.00;99.90
13978;DHT22;7063;49.260;8.636;2024-01-15T04:49:15;-1.00;99.90
13978;DHT22;7063;49.260;8.636;2024-01-15T04:51:41;-1.00;99.90
13978;DHT22;7063;49.260;8.636;2024-01-15T04:54:06;-1.00;99.90
13978;DHT22;7063;49.260;8.636;2024-01-15T04:56:32;-1.00;99.90
13978;DHT22;7063;49.260;8.636;2024-01-15T04:58:57;-1.00;99.90
13978;DHT22;7063;49.260;8.636;2024-01-15T05:01:23;-1.00;99.90
13978;DHT22;7063;49.260;8.636;2024-01-15T05:03:48;-1.00;99.90
13978;DHT22;7063;49.260;8.636;2024-01-15T05:06:15;-1.00;99.90
13978;DHT22;7063;49.260;8.636;2024-01-15T05:08:40;-1.00;99.90
13978;DHT22;7063;49.260;8.636;2024-01-15T05:11:06;-1.00;99.90
13978;DHT22;7063;49.260;8.636;2024-01-15T05:13:32;-1.00;99.90
13978;DHT22;7063;49.260;8.636;2024-01-15T05:15:57;-1.00;99.90
13978;DHT22;7063;49.260;8.636;2024-01-15T05:18:23;-1.00;99.90
13978;DHT22;7063;49.260;8.636;2024-01-15T05:20:48;-1.00;99.90
13978;DHT22;7063;49.260;8.636;2024-01-15T05:23:14;-1.00;99.90
13978;DHT22;7063;49.260;8.636;2024-01-15T05:25:39;-1.00;99.90
13978;DHT22;7063;49.260;8.636;2024-01-15T05:28:05;-1.00;99.90
13978;DHT22;7063;49.260;8.636;2024-01-15T05:30:31;-0.90;99.90
13978;DHT22;7063;49.260;8.636;2024-01-15T05:32:56;-0.90;99.90
13978;DHT22;7063;49.260;8.636;2024-01-15T05:35:23;-0.90;99.90
13978;DHT22;7063;49.260;8.636;2024-01-15T05:37:48;-0.90;99.90
13978;DHT22;7063;49.260;8.636;2024-01-15T05:40:14;-0.90;99.90
13978;DHT22;7063;49.260;8.636;2024-01-15T05:42:40;-0.90;99.90
13978;DHT22;7063;49.260;8.636;2024-01-15T05:45:06;-0.80;99.90
13978;DHT22;7063;49.260;8.636;2024-01-15T05:47:32;-0.80;99.90
13978;DHT22;7063;49.260;8.636;2024-01-15T05:49:58;-0.80;99.90
13978;DHT22;7063;49.260;8.636;2024-01-15T05:52:24;-0.80;99.90
13978;DHT22;7063;49.260;8.636;2024-01-15T05:54:49;-0.80;99.90
13978;DHT22;7063;49.260;8.636;2024-01-15T05:57:15;-0.80;99.90
13978;DHT22;7063;49.260;8.636;2024-01-15T05:59:41;-0.80;99.90
13978;DHT22;7063;49.260;8.636;2024-01-15T06:02:06;-0.80;99.90
13978;DHT22;7063;49.260;8.636;2024-01-15T06:04:32;-0.70;99.90
13978;DHT22;7063;49.260;8.636;2024-01-15T06:06:57;-0.70;99.90
13978;DHT22;7063;49.260;8.636;2024-01-15T06:09:23;-0.70;99.90
13978;DHT22;7063;49.260;8.636;2024-01-15T06:11:48;-0.70;99.90
13978;DHT22;7063;49.260;8.636;2024-01-15T06:14:14;-0.70;99.90
13978;DHT22;7063;49.260;8.636;2024-01-15T06:16:40;-0.70;99.90
13978;DHT22;7063;49.260;8.636;2024-01-15T06:19:05;-0.70;99.90
13978;DHT22;7063;49.260;8.636;2024-01-15T06:21:31;-0.70;99.90
13978;DHT22;7063;49.260;8.636;2024-01-15T06:23:56;-0.70;99.90
13978;DHT22;7063;49.260;8.636;2024-01-15T06:26:22;-0.70;99.90
13978;DHT22;7063;49.260;8.636;2024-01-15T06:28:48;-0.70;99.90
13978;DHT22;7063;49.260;8.636;2024-01-15T06:31:13;-0.70;99.90
13978;DHT22;7063;49.260;8.636;2024-01-15T06:33:39;-0.70;99.90
13978;DHT22;7063;49.260;8.636;2024-01-15T06:36:05;-0.60;99.90
13978;DHT22;7063;49.260;8.636;2024-01-15T06:38:31;-0.60;99.90
13978;DHT22;7063;49.260;8.636;2024-01-15T06:40:57;-0.60;99.90
13978;DHT22;7063;49.260;8.636;2024-01-15T06:43:22;-0.60;99.90
13978;DHT22;7063;49.260;8.636;2024-01-15T06:45:48;-0.60;99.90
13978;DHT22;7063;49.260;8.636;2024-01-15T06:48:14;-0.60;99.90
13978;DHT22;7063;49.260;8.636;2024-01-15T06:50:45;-0.60;99.90
13978;DHT22;7063;49.260;8.636;2024-01-15T06:53:10;-0.60;99.90
13978;DHT22;7063;49.260;8.636;2024-01-15T06:55:37;-0.60;99.90
13978;DHT22;7063;49.260;8.636;2024-01-15T06:58:02;-0.60;99.90
13978;DHT22;7063;49.260;8.636;2024-01-15T07:00:28;-0.60;99.90
13978;DHT22;7063;49.260;8.636;2024-01-15T07:02:54;-0.60;99.90
13978;DHT22;7063;49.260;8.636;2024-01-15T07:05:20;-0.60;99.90
13978;DHT22;7063;49.260;8.636;2024-01-15T07:07:46;-0.60;99.90
13978;DHT22;7063;49.260;8.636;2024-01-15T07:10:13;-0.60;99.90
13978;DHT22;7063;49.260;8.636;2024-01-15T07:12:38;-0.60;99.90
13978;DHT22;7063;49.260;8.636;2024-01-15T07:15:04;-0.60;99.90
13978;DHT22;7063;49.260;8.636;2024-01-15T07:17:32;-0.60;99.90
13978;DHT22;7063;49.260;8.636;2024-01-15T07:19:57;-0.50;99.90
13978;DHT22;7063;49.260;8.636;2024-01-15T07:22:23;-0.40;99.90
13978;DHT22;7063;49.260;8.636;2024-01-15T07:24:49;-0.50;99.90
13978;DHT22;7063;49.260;8.636;2024-01-15T07:27:14;-0.40;99.90
13978;DHT22;7063;49.260;8.636;2024-01-15T07:29:40;-0.40;99.90
13978;DHT22;7063;49.260;8.636;2024-01-15T07:32:05;-0.40;99.90
13978;DHT22;7063;49.260;8.636;2024-01-15T07:34:33;-0.40;99.90
13978;DHT22;7063;49.260;8.636;2024-01-15T07:36:58;-0.40;99.90
13978;DHT22;7063;49.260;8.636;2024-01-15T07:39:24;-0.40;99.90
13978;DHT22;7063;49.260;8.636;2024-01-15T07:41:51;-0.40;99.90
13978;DHT22;7063;49.260;8.636;2024-01-15T07:44:16;-0.30;99.90
13978;DHT22;7063;49.260;8.636;2024-01-15T07:46:48;-0.30;99.90
13978;DHT22;7063;49.260;8.636;2024-01-15T07:49:14;-0.30;99.90
13978;DHT22;7063;49.260;8.636;2024-01-15T07:51:40;-0.30;99.90
13978;DHT22;7063;49.260;8.636;2024-01-15T07:54:06;-0.30;99.90
13978;DHT22;7063;49.260;8.636;2024-01-15T07:56:32;-0.30;99.90
13978;DHT22;7063;49.260;8.636;2024-01-15T07:58:58;-0.30;99.90
13978;DHT22;7063;49.260;8.636;2024-01-15T08:01:24;-0.30;99.90
13978;DHT22;7063;49.260;8.636;2024-01-15T08:03:49;-0.30;99.90
13978;DHT22;7063;49.260;8.636;2024-01-15T08:06:16;-0.30;99.90
13978;DHT22;7063;49.260;8.636;2024-01-15T08:08:42;-0.20;99.90
13978;DHT22;7063;49.260;8.636;2024-01-15T08:11:07;-0.20;99.90
13978;DHT22;7063;49.260;8.636;2024-01-15T08:13:33;-0.20;99.90
13978;DHT22;7063;49.260;8.636;2024-01-15T08:15:58;-0.20;99.90
13978;DHT22;7063;49.260;8.636;2024-01-15T08:18:24;-0.10;99.90
13978;DHT22;7063;49.260;8.636;2024-01-15T08:20:50;-0.10;99.90
13978;DHT22;7063;49.260;8.636;2024-01-15T08:23:16;-0.10;99.90
13978;DHT22;7063;49.260;8.636;2024-01-15T08:25:42;-0.10;99.90
13978;DHT22;7063;49.260;8.636;2024-01-15T08:28:08;-0.10;99.90
13978;DHT22;7063;49.260;8.636;2024-01-15T08:30:33;-0.10;99.90
13978;DHT22;7063;49.260;8.636;2024-01-15T08:33:00;-0.10;99.90
13978;DHT22;7063;49.260;8.636;2024-01-15T08:35:25;0.00;99.90
13978;DHT22;7063;49.260;8.636;2024-01-15T08:37:54;0.00;99.90
13978;DHT22;7063;49.260;8.636;2024-01-15T08:40:20;0.00;99.90
13978;DHT22;7063;49.260;8.636;2024-01-15T08:42:46;0.10;99.90
13978;DHT22;7063;49.260;8.636;2024-01-15T08:45:12;0.10;99.90
13978;DHT22;7063;49.260;8.636;2024-01-15T08:47:38;0.10;99.90
13978;DHT22;7063;49.260;8.636;2024-01-15T08:50:04;0.10;99.90
13978;DHT22;7063;49.260;8.636;2024-01-15T08:52:30;0.10;99.90
13978;DHT22;7063;49.260;8.636;2024-01-15T08:54:56;0.10;99.90
13978;DHT22;7063;49.260;8.636;2024-01-15T08:57:22;0.20;99.90
13978;DHT22;7063;49.260;8.636;2024-01-15T08:59:47;0.20;99.90
13978;DHT22;7063;49.260;8.636;2024-01-15T09:02:13;0.30;99.90
13978;DHT22;7063;49.260;8.636;2024-01-15T09:04:38;0.30;99.90
13978;DHT22;7063;49.260;8.636;2024-01-15T09:07:04;0.30;99.90
13978;DHT22;7063;49.260;8.636;2024-01-15T09:09:30;0.30;99.90
13978;DHT22;7063;49.260;8.636;2024-01-15T09:11:55;0.40;99.90
13978;DHT22;7063;49.260;8.636;2024-01-15T09:14:21;0.40;99.90
13978;DHT22;7063;49.260;8.636;2024-01-15T09:16:47;0.50;99.90
13978;DHT22;7063;49.260;8.636;2024-01-15T09:19:13;0.50;99.90
13978;DHT22;7063;49.260;8.636;2024-01-15T09:21:39;0.50;99.90
13978;DHT22;7063;49.260;8.636;2024-01-15T09:24:05;0.60;99.90
13978;DHT22;7063;49.260;8.636;2024-01-15T09:26:30;0.50;99.90
13978;DHT22;7063;49.260;8.636;2024-01-15T09:28:57;0.60;99.90
13978;DHT22;7063;49.260;8.636;2024-01-15T09:31:22;0.60;99.90
13978;DHT22;7063;49.260;8.636;2024-01-15T09:33:49;0.60;99.90
13978;DHT22;7063;49.260;8.636;2024-01-15T09:36:18;0.60;99.90
13978;DHT22;7063;49.260;8.636;2024-01-15T09:38:43;0.60;99.90
13978;DHT22;7063;49.260;8.636;2024-01-15T09:41:09;0.60;99.90
13978;DHT22;7063;49.260;8.636;2024-01-15T09:43:36;0.50;99.90
13978;DHT22;7063;49.260;8.636;2024-01-15T09:46:03;0.50;99.90
13978;DHT22;7063;49.260;8.636;2024-01-15T09:48:29;0.40;99.90
13978;DHT22;7063;49.260;8.636;2024-01-15T09:50:55;0.40;99.90
13978;DHT22;7063;49.260;8.636;2024-01-15T09:53:23;0.40;99.90
13978;DHT22;7063;49.260;8.636;2024-01-15T09:55:50;0.40;99.90
13978;DHT22;7063;49.260;8.636;2024-01-15T09:58:16;0.40;99.90
13978;DHT22;7063;49.260;8.636;2024-01-15T10:00:42;0.40;99.90
13978;DHT22;7063;49.260;8.636;2024-01-15T10:03:09;0.40;99.90
13978;DHT22;7063;49.260;8.636;2024-01-15T10:05:37;0.40;99.90
13978;DHT22;7063;49.260;8.636;2024-01-15T10:08:03;0.40;99.90
13978;DHT22;7063;49.260;8.636;2024-01-15T10:10:29;0.40;99.90
13978;DHT22;7063;49.260;8.636;2024-01-15T10:12:55;0.50;99.90
13978;DHT22;7063;49.260;8.636;2024-01-15T10:15:25;0.50;99.90
13978;DHT22;7063;49.260;8.636;2024-01-15T10:17:51;0.50;99.90
13978;DHT22;7063;49.260;8.636;2024-01-15T10:20:17;0.50;99.90
13978;DHT22;7063;49.260;8.636;2024-01-15T10:22:43;0.50;99.90
13978;DHT22;7063;49.260;8.636;2024-01-15T10:25:15;0.60;99.90
13978;DHT22;7063;49.260;8.636;2024-01-15T10:27:41;0.60;99.90
13978;DHT22;7063;49.260;8.636;2024-01-15T10:30:12;0.60;99.90
13978;DHT22;7063;49.260;8.636;2024-01-15T10:32:39;0.60;99.90
13978;DHT22;7063;49.260;8.636;2024-01-15T10:35:07;0.50;99.90
13978;DHT22;7063;49.260;8.636;2024-01-15T10:37:33;0.60;99.90
13978;DHT22;7063;49.260;8.636;2024-01-15T10:40:02;0.60;99.90
13978;DHT22;7063;49.260;8.636;2024-01-15T10:42:30;0.60;99.90
13978;DHT22;7063;49.260;8.636;2024-01-15T10:44:56;0.70;99.90
13978;DHT22;7063;49.260;8.636;2024-01-15T10:47:22;0.70;99.90
13978;DHT22;7063;49.260;8.636;2024-01-15T10:49:48;0.70;99.90
13978;DHT22;7063;49.260;8.636;2024-01-15T10:52:14;0.60;99.90
13978;DHT22;7063;49.260;8.636;2024-01-15T10:54:41;0.70;99.90
13978;DHT22;7063;49.260;8.636;2024-01-15T10:57:08;0.70;99.90
13978;DHT22;7063;49.260;8.636;2024-01-15T10:59:34;0.70;99.90
13978;DHT22;7063;49.260;8.636;2024-01-15T11:02:01;0.80;99.90
13978;DHT22;7063;49.260;8.636;2024-01-15T11:04:27;0.70;99.90
13978;DHT22;7063;49.260;8.636;2024-01-15T11:06:54;0.70;99.90
13978;DHT22;7063;49.260;8.636;2024-01-15T11:09:20;0.80;99.90
13978;DHT22;7063;49.260;8.636;2024-01-15T11:11:47;0.80;99.90
13978;DHT22;7063;49.260;8.636;2024-01-15T11:14:47;0.70;99.90
13978;DHT22;7063;49.260;8.636;2024-01-15T11:17:14;0.70;99.90
13978;DHT22;7063;49.260;8.636;2024-01-15T11:19:44;0.70;99.90
13978;DHT22;7063;49.260;8.636;2024-01-15T11:24:54;0.80;99.90
13978;DHT22;7063;49.260;8.636;2024-01-15T11:27:43;0.70;99.90
13978;DHT22;7063;49.260;8.636;2024-01-15T11:30:10;0.70;99.90
13978;DHT22;7063;49.260;8.636;2024-01-15T11:32:38;0.70;99.90
13978;DHT22;7063;49.260;8.636;2024-01-15T11:35:08;0.70;99.90
13978;DHT22;7063;49.260;8.636;2024-01-15T11:40:36;0.70;99.90
13978;DHT22;7063;49.260;8.636;2024-01-15T11:43:04;0.70;99.90
13978;DHT22;7063;49.260;8.636;2024-01-15T11:45:30;0.80;99.90
13978;DHT22;7063;49.260;8.636;2024-01-15T11:48:09;0.80;99.90
13978;DHT22;7063;49.260;8.636;2024-01-15T11:50:40;0.80;99.90
13978;DHT22;7063;49.260;8.636;2024-01-15T11:53:17;0.80;99.90
13978;DHT22;7063;49.260;8.636;2024-01-15T11:55:45;0.80;99.90
13978;DHT22;7063;49.260;8.636;2024-01-15T11:58:11;0.80;99.90
13978;DHT22;7063;49.260;8.636;2024-01-15T12:00:44;0.80;99.90
13978;DHT22;7063;49.260;8.636;2024-01-15T12:03:10;0.80;99.90
13978;DHT22;7063;49.260;8.636;2024-01-15T12:05:40;0.80;99.90
13978;DHT22;7063;49.260;8.636;2024-01-15T12:08:07;0.80;99.90
13978;DHT22;7063;49.260;8.636;2024-01-15T12:10:37;0.80;99.90
13978;DHT22;7063;49.260;8.636;2024-01-15T12:13:13;0.80;99.90
13978;DHT22;7063;49.260;8.636;2024-01-15T12:15:41;0.90;99.90
13978;DHT22;7063;49.260;8.636;2024-01-15T12:18:08;0.90;99.90
13978;DHT22;7063;49.260;8.636;2024-01-15T12:20:34;0.90;99.90
13978;DHT22;7063;49.260;8.636;2024-01-15T12:23:01;0.90;99.90
13978;DHT22;7063;49.260;8.636;2024-01-15T12:25:29;0.90;99.90
13978;DHT22;7063;49.260;8.636;2024-01-15T12:27:55;0.90;99.90
13978;DHT22;7063;49.260;8.636;2024-01-15T12:30:21;0.90;99.90
13978;DHT22;7063;49.260;8.636;2024-01-15T12:32:47;0.90;99.90
13978;DHT22;7063;49.260;8.636;2024-01-15T12:35:13;1.00;99.90
13978;DHT22;7063;49.260;8.636;2024-01-15T12:37:40;1.00;99.90
13978;DHT22;7063;49.260;8.636;2024-01-15T12:40:07;1.00;99.90
13978;DHT22;7063;49.260;8.636;2024-01-15T12:42:33;1.10;99.90
13978;DHT22;7063;49.260;8.636;2024-01-15T12:45:00;1.10;99.90
13978;DHT22;7063;49.260;8.636;2024-01-15T12:47:26;1.10;99.90
13978;DHT22;7063;49.260;8.636;2024-01-15T12:49:52;1.10;99.90
13978;DHT22;7063;49.260;8.636;2024-01-15T12:52:21;1.20;99.90
13978;DHT22;7063;49.260;8.636;2024-01-15T12:54:51;1.20;99.90
13978;DHT22;7063;49.260;8.636;2024-01-15T12:57:17;1.20;99.90
13978;DHT22;7063;49.260;8.636;2024-01-15T12:59:43;1.20;99.90
13978;DHT22;7063;49.260;8.636;2024-01-15T13:02:11;1.30;99.90
13978;DHT22;7063;49.260;8.636;2024-01-15T13:04:37;1.30;99.90
13978;DHT22;7063;49.260;8.636;2024-01-15T13:07:02;1.30;99.90
13978;DHT22;7063;49.260;8.636;2024-01-15T13:09:28;1.30;99.90
13978;DHT22;7063;49.260;8.636;2024-01-15T13:11:55;1.40;99.90
13978;DHT22;7063;49.260;8.636;2024-01-15T13:14:20;1.30;99.90
13978;DHT22;7063;49.260;8.636;2024-01-15T13:16:46;1.40;99.90
13978;DHT22;7063;49.260;8.636;2024-01-15T13:19:12;1.40;99.90
13978;DHT22;7063;49.260;8.636;2024-01-15T13:21:41;1.40;99.90
13978;DHT22;7063;49.260;8.636;2024-01-15T13:24:07;1.50;99.90
13978;DHT22;7063;49.260;8.636;2024-01-15T13:26:33;1.50;99.90
13978;DHT22;7063;49.260;8.636;2024-01-15T13:29:03;1.40;99.90
13978;DHT22;7063;49.260;8.636;2024-01-15T13:31:32;1.40;99.90
13978;DHT22;7063;49.260;8.636;2024-01-15T13:33:57;1.40;99.90
13978;DHT22;7063;49.260;8.636;2024-01-15T13:36:26;1.40;99.90
13978;DHT22;7063;49.260;8.636;2024-01-15T13:38:53;1.50;99.90
13978;DHT22;7063;49.260;8.636;2024-01-15T13:41:19;1.50;99.90
13978;DHT22;7063;49.260;8.636;2024-01-15T13:43:49;1.50;99.90
13978;DHT22;7063;49.260;8.636;2024-01-15T13:46:16;1.60;99.90
13978;DHT22;7063;49.260;8.636;2024-01-15T13:48:42;1.60;99.90
13978;DHT22;7063;49.260;8.636;2024-01-15T13:51:08;1.70;99.90
13978;DHT22;7063;49.260;8.636;2024-01-15T13:53:34;1.80;99.90
13978;DHT22;7063;49.260;8.636;2024-01-15T13:55:59;1.90;99.90
13978;DHT22;7063;49.260;8.636;2024-01-15T13:58:25;1.90;99.90
13978;DHT22;7063;49.260;8.636;2024-01-15T14:00:51;1.90;99.90
13978;DHT22;7063;49.260;8.636;2024-01-15T14:03:17;1.80;99.90
13978;DHT22;7063;49.260;8.636;2024-01-15T14:05:44;1.80;99.90
13978;DHT22;7063;49.260;8.636;2024-01-15T14:08:09;1.70;99.90
13978;DHT22;7063;49.260;8.636;2024-01-15T14:10:35;1.70;99.90
13978;DHT22;7063;49.260;8.636;2024-01-15T14:13:00;1.80;99.90
13978;DHT22;7063;49.260;8.636;2024-01-15T14:15:26;1.70;99.90
13978;DHT22;7063;49.260;8.636;2024-01-15T14:17:52;1.80;99.90
13978;DHT22;7063;49.260;8.636;2024-01-15T14:20:18;1.80;99.90
13978;DHT22;7063;49.260;8.636;2024-01-15T14:22:43;1.80;99.90
13978;DHT22;7063;49.260;8.636;2024-01-15T14:25:09;1.80;99.90
13978;DHT22;7063;49.260;8.636;2024-01-15T14:27:35;1.90;99.90
13978;DHT22;7063;49.260;8.636;2024-01-15T14:30:02;1.90;99.90
13978;DHT22;7063;49.260;8.636;2024-01-15T14:32:27;2.00;99.90
13978;DHT22;7063;49.260;8.636;2024-01-15T14:34:53;2.10;99.90
13978;DHT22;7063;49.260;8.636;2024-01-15T14:37:18;2.10;99.90
13978;DHT22;7063;49.260;8.636;2024-01-15T14:39:44;2.10;99.90
13978;DHT22;7063;49.260;8.636;2024-01-15T14:42:09;2.10;99.90
13978;DHT22;7063;49.260;8.636;2024-01-15T14:44:36;2.10;99.90
13978;DHT22;7063;49.260;8.636;2024-01-15T14:47:03;2.20;99.90
13978;DHT22;7063;49.260;8.636;2024-01-15T14:49:29;2.30;99.90
13978;DHT22;7063;49.260;8.636;2024-01-15T14:51:54;2.30;99.90
13978;DHT22;7063;49.260;8.636;2024-01-15T14:54:20;2.20;99.90
13978;DHT22;7063;49.260;8.636;2024-01-15T14:56:46;2.20;99.90
13978;DHT22;7063;49.260;8.636;2024-01-15T14:59:11;2.10;99.90
13978;DHT22;7063;49.260;8.636;2024-01-15T15:01:37;2.10;99.90
13978;DHT22;7063;49.260;8.636;2024-01-15T15:04:03;2.10;99.90
13978;DHT22;7063;49.260;8.636;2024-01-15T15:06:29;2.00;99.90
13978;DHT22;7063;49.260;8.636;2024-01-15T15:08:54;2.00;99.90
13978;DHT22;7063;49.260;8.636;2024-01-15T15:11:21;2.00;99.90
13978;DHT22;7063;49.260;8.636;2024-01-15T15:13:48;2.00;99.90
13978;DHT22;7063;49.260;8.636;2024-01-15T15:16:14;2.00;99.90
13978;DHT22;7063;49.260;8.636;2024-01-15T15:18:40;2.00;99.90
13978;DHT22;7063;49.260;8.636;2024-01-15T15:21:08;1.90;99.90
13978;DHT22;7063;49.260;8.636;2024-01-15T15:23:33;1.90;99.90
13978;DHT22;7063;49.260;8.636;2024-01-15T15:25:59;1.80;99.90
13978;DHT22;7063;49.260;8.636;2024-01-15T15:28:24;1.80;99.90
13978;DHT22;7063;49.260;8.636;2024-01-15T15:30:50;1.80;99.90
13978;DHT22;7063;49.260;8.636;2024-01-15T15:33:16;1.80;99.90
13978;DHT22;7063;49.260;8.636;2024-01-15T15:35:43;1.70;99.90
13978;DHT22;7063;49.260;8.636;2024-01-15T15:38:09;1.70;99.90
13978;DHT22;7063;49.260;8.636;2024-01-15T15:40:34;1.60;99.90
13978;DHT22;7063;49.260;8.636;2024-01-15T15:43:00;1.60;99.90
13978;DHT22;7063;49.260;8.636;2024-01-15T15:45:25;1.60;99.90
13978;DHT22;7063;49.260;8.636;2024-01-15T15:47:51;1.60;99.90
13978;DHT22;7063;49.260;8.636;2024-01-15T15:50:16;1.60;99.90
13978;DHT22;7063;49.260;8.636;2024-01-15T15:52:42;1.60;99.90